Terminal Aerodrome Forecast
Issued by NWS

Home | Current Version | Previous Version | Text Only | Print | Product List | Glossary On
Versions: 1 2 3 4 5 6 7 8 9 10 11 12 13 14 15 16 17 18 19
000
FTUS43 KDVN 030520
TAFCID
TAF
KCID 030520Z 0306/0406 18005KT P6SM SKC
     FM031000 19005KT 5SM BR SKC
     FM031500 20007KT P6SM SCT040
     FM040100 18003KT P6SM SCT060=

USA.gov is the U.S. government's official web portal to all federal, state and local government web resources and services.